createdAt,value
2022-09-28T00:00:26.205Z,7.09
2022-09-28T00:02:57.702Z,7.09
2022-09-28T00:05:28.261Z,7.09
2022-09-28T00:07:58.036Z,6.96
2022-09-28T00:10:26.797Z,7.09
2022-09-28T00:12:56.471Z,6.99
2022-09-28T00:15:25.809Z,6.98
2022-09-28T00:17:54.720Z,6.89
2022-09-28T00:20:23.461Z,6.94
2022-09-28T00:22:53.799Z,6.91
2022-09-28T00:25:25.022Z,6.89
2022-09-28T00:27:54.162Z,6.86
2022-09-28T00:30:22.822Z,6.84
2022-09-28T00:32:51.660Z,6.73
2022-09-28T00:35:20.372Z,6.80
2022-09-28T00:37:52.268Z,6.79
2022-09-28T00:40:21.183Z,6.73
2022-09-28T00:42:50.071Z,6.79
2022-09-28T00:45:19.024Z,6.71
2022-09-28T00:47:53.120Z,6.68
2022-09-28T00:50:28.197Z,6.62
2022-09-28T00:53:05.553Z,6.58
2022-09-28T00:55:43.122Z,6.61
2022-09-28T00:58:16.997Z,6.50
2022-09-28T01:00:45.950Z,6.54
2022-09-28T01:03:15.490Z,6.55
2022-09-28T01:05:47.162Z,6.49
2022-09-28T01:08:21.273Z,6.52
2022-09-28T01:10:51.283Z,6.41
2022-09-28T01:13:24.718Z,6.47
2022-09-28T01:16:08.894Z,6.51
2022-09-28T01:18:54.891Z,6.51
2022-09-28T01:21:25.119Z,6.52
2022-09-28T01:24:26.554Z,6.43
2022-09-28T01:27:16.755Z,6.42
2022-09-28T01:29:56.015Z,6.44
2022-09-28T01:32:45.168Z,6.40
2022-09-28T01:35:22.247Z,6.40
2022-09-28T01:37:58.647Z,6.46
2022-09-28T01:40:31.599Z,6.28
2022-09-28T01:43:09.319Z,6.42
2022-09-28T01:45:45.882Z,6.41
2022-09-28T01:48:24.165Z,6.18
2022-09-28T01:50:59.546Z,6.10
2022-09-28T01:53:37.223Z,5.96
2022-09-28T01:56:13.614Z,5.74
2022-09-28T01:58:50.204Z,5.65
2022-09-28T02:01:25.596Z,5.62
2022-09-28T02:04:03.804Z,5.53
2022-09-28T02:06:40.649Z,5.56
2022-09-28T02:09:15.356Z,5.58
2022-09-28T02:11:55.133Z,5.56
2022-09-28T02:14:27.480Z,5.55
2022-09-28T02:16:58.543Z,5.64
2022-09-28T02:19:34.088Z,5.73
2022-09-28T02:22:14.637Z,5.77
2022-09-28T02:24:56.585Z,5.75
2022-09-28T02:27:39.202Z,5.78
2022-09-28T02:30:11.353Z,5.81
2022-09-28T02:32:45.615Z,5.82
2022-09-28T02:35:17.080Z,5.94
2022-09-28T02:37:52.918Z,5.77
2022-09-28T02:40:27.963Z,5.83
2022-09-28T02:43:09.762Z,5.92
2022-09-28T02:45:58.213Z,5.87
2022-09-28T02:49:10.593Z,5.89
2022-09-28T02:51:59.397Z,5.77
2022-09-28T02:55:13.673Z,5.89
2022-09-28T02:58:04.430Z,5.76
2022-09-28T03:00:43.928Z,5.84
2022-09-28T03:03:25.411Z,5.82
2022-09-28T03:06:04.556Z,5.80
2022-09-28T03:08:46.249Z,5.98
2022-09-28T03:11:22.859Z,6.02
2022-09-28T03:13:54.431Z,6.02
2022-09-28T03:16:32.050Z,6.17
2022-09-28T03:19:01.026Z,6.14
2022-09-28T03:21:29.794Z,6.18
2022-09-28T03:23:58.593Z,6.26
2022-09-28T03:26:27.298Z,6.36
2022-09-28T03:28:55.996Z,6.31
2022-09-28T03:31:26.787Z,6.44
2022-09-28T03:33:57.068Z,6.49
2022-09-28T03:36:26.104Z,6.44
2022-09-28T03:38:56.319Z,6.53
2022-09-28T03:41:27.819Z,6.67
2022-09-28T03:43:56.672Z,6.49
2022-09-28T03:46:27.554Z,6.66
2022-09-28T03:49:01.610Z,6.54
2022-09-28T03:51:31.089Z,6.56
2022-09-28T03:54:00.087Z,6.47
2022-09-28T03:56:29.034Z,6.52
2022-09-28T03:58:58.046Z,6.61
2022-09-28T04:01:30.649Z,6.72
2022-09-28T04:04:01.575Z,6.68
2022-09-28T04:06:30.637Z,6.76
2022-09-28T04:09:00.049Z,6.76
2022-09-28T04:11:42.860Z,6.77
2022-09-28T04:14:18.263Z,6.89
2022-09-28T04:17:07.315Z,6.96
2022-09-28T04:19:38.472Z,6.99
2022-09-28T04:22:27.577Z,7.09
2022-09-28T04:24:59.103Z,7.03
2022-09-28T04:27:45.628Z,7.12
2022-09-28T04:30:15.064Z,7.15
2022-09-28T04:32:48.118Z,7.24
2022-09-28T04:35:19.169Z,7.24
2022-09-28T04:37:49.179Z,7.28
2022-09-28T04:40:18.363Z,7.31
2022-09-28T04:42:55.918Z,7.40
2022-09-28T04:45:27.013Z,7.44
2022-09-28T04:47:59.480Z,7.45
2022-09-28T04:51:08.408Z,7.42
2022-09-28T04:53:37.498Z,7.49
2022-09-28T04:56:09.841Z,7.49
2022-09-28T04:58:41.354Z,7.61
2022-09-28T05:01:13.561Z,7.54
2022-09-28T05:04:11.305Z,7.69
2022-09-28T05:07:10.768Z,7.70
2022-09-28T05:09:40.327Z,7.79
2022-09-28T05:12:10.752Z,7.78
2022-09-28T05:14:40.176Z,7.82
2022-09-28T05:17:14.673Z,7.87
2022-09-28T05:20:00.890Z,7.86
2022-09-28T05:22:34.906Z,7.97
2022-09-28T05:25:03.975Z,8.00
2022-09-28T05:27:40.294Z,8.02
2022-09-28T05:30:24.249Z,8.15
2022-09-28T05:33:25.032Z,8.11
2022-09-28T05:36:06.290Z,8.14
2022-09-28T05:38:36.702Z,8.24
2022-09-28T05:41:08.613Z,8.26
2022-09-28T05:43:38.955Z,8.26
2022-09-28T05:46:08.603Z,8.37
2022-09-28T05:48:41.910Z,8.46
2022-09-28T05:51:12.226Z,8.61
2022-09-28T05:54:51.252Z,8.66
2022-09-28T05:57:50.339Z,8.71
2022-09-28T06:00:23.853Z,8.77
2022-09-28T06:03:22.805Z,8.82
2022-09-28T06:09:47.846Z,8.89
2022-09-28T06:12:25.779Z,8.98
2022-09-28T06:15:04.649Z,9.04
2022-09-28T06:17:33.503Z,9.07
2022-09-28T06:20:35.832Z,9.19
2022-09-28T06:23:15.896Z,9.22
2022-09-28T06:25:48.514Z,9.22
2022-09-28T06:29:01.515Z,9.34
2022-09-28T06:31:43.054Z,9.43
2022-09-28T06:34:36.112Z,9.48
2022-09-28T06:37:12.747Z,9.50
2022-09-28T06:39:42.470Z,9.45
2022-09-28T06:42:12.997Z,9.55
2022-09-28T06:45:06.201Z,9.59
2022-09-28T06:48:27.225Z,9.93
2022-09-28T06:50:58.645Z,10.01
2022-09-28T06:53:54.095Z,10.03
2022-09-28T06:56:46.451Z,10.16
2022-09-28T06:59:20.586Z,10.15
2022-09-28T07:01:56.461Z,10.10
2022-09-28T07:05:03.656Z,10.15
2022-09-28T07:07:45.073Z,10.17
2022-09-28T07:10:28.450Z,10.25
2022-09-28T07:13:43.408Z,10.34
2022-09-28T07:16:13.395Z,10.25
2022-09-28T07:18:53.446Z,10.21
2022-09-28T07:21:30.644Z,10.32
2022-09-28T07:24:06.760Z,10.42
2022-09-28T07:27:05.775Z,10.45
2022-09-28T07:29:54.765Z,10.46
2022-09-28T07:35:05.085Z,10.60
2022-09-28T07:37:49.407Z,10.66
2022-09-28T07:40:37.795Z,10.64
2022-09-28T07:43:08.043Z,10.61
2022-09-28T07:45:42.483Z,10.51
2022-09-28T07:48:13.946Z,10.39
2022-09-28T07:51:02.804Z,10.30
2022-09-28T07:53:41.846Z,10.19
2022-09-28T07:56:31.167Z,10.22
2022-09-28T07:59:29.280Z,10.17
2022-09-28T08:02:20.342Z,10.05
2022-09-28T08:04:51.493Z,10.13
2022-09-28T08:07:23.843Z,10.08
2022-09-28T08:10:00.186Z,10.03
2022-09-28T08:12:29.285Z,9.82
2022-09-28T08:15:27.015Z,9.96
2022-09-28T08:18:09.404Z,10.09
2022-09-28T08:21:03.294Z,9.95
2022-09-28T08:23:32.376Z,10.03
2022-09-28T08:26:04.504Z,9.99
2022-09-28T08:28:35.988Z,9.94
2022-09-28T08:31:25.049Z,9.80
2022-09-28T08:34:33.219Z,9.75
2022-09-28T08:37:34.135Z,9.77
2022-09-28T08:40:26.985Z,9.88
2022-09-28T08:43:38.519Z,9.96
2022-09-28T08:46:30.467Z,10.07
2022-09-28T08:49:29.913Z,10.22
2022-09-28T08:52:25.121Z,10.20
2022-09-28T08:55:33.768Z,10.23
2022-09-28T08:58:08.024Z,10.32
2022-09-28T09:00:49.434Z,10.40
2022-09-28T09:03:28.867Z,10.55
2022-09-28T09:07:04.525Z,10.56
2022-09-28T09:10:00.686Z,10.67
2022-09-28T09:12:44.273Z,10.64
2022-09-28T09:15:38.889Z,10.75
2022-09-28T09:18:32.743Z,10.79
2022-09-28T09:21:27.985Z,10.72
2022-09-28T09:24:01.627Z,10.74
2022-09-28T09:27:10.535Z,10.57
2022-09-28T09:30:07.288Z,10.64
2022-09-28T09:33:29.771Z,10.54
2022-09-28T09:36:47.996Z,10.40
2022-09-28T09:40:12.073Z,10.52
2022-09-28T09:43:40.176Z,10.50
2022-09-28T09:46:55.857Z,10.52
2022-09-28T09:49:40.795Z,10.57
2022-09-28T09:52:25.513Z,10.59
2022-09-28T09:55:01.392Z,10.81
2022-09-28T09:57:46.636Z,11.09
2022-09-28T10:00:34.127Z,11.02
2022-09-28T10:04:01.024Z,10.89
2022-09-28T10:06:36.145Z,10.84
2022-09-28T10:09:30.317Z,10.83
2022-09-28T10:12:22.090Z,11.06
2022-09-28T10:14:53.312Z,11.31
2022-09-28T10:17:26.967Z,11.46
2022-09-28T10:20:19.966Z,11.69
2022-09-28T10:23:07.224Z,11.78
2022-09-28T10:25:52.920Z,11.85
2022-09-28T10:29:09.387Z,11.80
2022-09-28T10:31:45.105Z,11.90
2022-09-28T10:34:29.581Z,11.94
2022-09-28T10:37:09.373Z,11.84
2022-09-28T10:39:58.484Z,11.90
2022-09-28T10:42:36.268Z,11.94
2022-09-28T10:45:23.404Z,11.99
2022-09-28T10:47:55.822Z,11.92
2022-09-28T10:50:30.501Z,11.96
2022-09-28T10:53:21.311Z,11.97
2022-09-28T10:56:22.930Z,12.04
2022-09-28T10:59:00.389Z,12.08
2022-09-28T11:01:43.540Z,11.94
2022-09-28T11:04:23.947Z,11.96
2022-09-28T11:09:33.843Z,11.85
2022-09-28T11:12:17.097Z,11.61
2022-09-28T11:14:52.704Z,11.78
2022-09-28T11:17:31.162Z,11.85
2022-09-28T11:20:27.041Z,11.87
2022-09-28T11:23:01.592Z,11.88
2022-09-28T11:25:39.807Z,11.75
2022-09-28T11:28:24.707Z,11.69
2022-09-28T11:30:56.084Z,11.46
2022-09-28T11:33:43.436Z,11.50
2022-09-28T11:37:02.657Z,11.43
2022-09-28T11:39:47.617Z,11.55
2022-09-28T11:42:42.935Z,11.71
2022-09-28T11:45:38.446Z,11.74
2022-09-28T11:48:13.646Z,11.78
2022-09-28T11:50:50.871Z,11.96
2022-09-28T11:53:36.810Z,11.94
2022-09-28T11:56:18.885Z,11.99
2022-09-28T11:58:54.770Z,11.92
2022-09-28T12:01:53.796Z,12.01
2022-09-28T12:04:59.547Z,12.19
2022-09-28T12:07:37.752Z,12.26
2022-09-28T12:10:21.250Z,12.25
2022-09-28T12:13:00.223Z,12.18
2022-09-28T12:16:12.759Z,12.13
2022-09-28T12:18:43.671Z,12.11
2022-09-28T12:21:37.969Z,12.08
2022-09-28T12:24:21.919Z,12.20
2022-09-28T12:26:58.125Z,12.28
2022-09-28T12:29:34.110Z,12.31
2022-09-28T12:32:47.632Z,12.20
2022-09-28T12:35:43.350Z,12.45
2022-09-28T12:39:08.533Z,12.60
2022-09-28T12:41:59.925Z,12.62
2022-09-28T12:45:11.781Z,12.62
2022-09-28T12:51:43.615Z,12.11
2022-09-28T13:02:02.569Z,11.94
2022-09-28T13:04:58.339Z,11.87
2022-09-28T13:07:38.371Z,11.92
2022-09-28T13:10:24.623Z,11.91
2022-09-28T13:13:17.798Z,12.00
2022-09-28T13:15:58.034Z,11.99
2022-09-28T13:18:34.904Z,12.08
2022-09-28T13:21:24.111Z,12.00
2022-09-28T13:24:08.720Z,11.99
2022-09-28T13:26:49.218Z,12.04
2022-09-28T13:29:22.283Z,12.01
2022-09-28T13:31:56.811Z,12.07
2022-09-28T13:34:30.291Z,11.99
2022-09-28T13:37:25.616Z,12.02
2022-09-28T13:39:56.814Z,11.99
2022-09-28T13:43:19.405Z,11.95
2022-09-28T13:45:57.503Z,12.02
2022-09-28T13:48:42.601Z,11.99
2022-09-28T13:51:39.246Z,11.94
2022-09-28T13:54:41.364Z,11.91
2022-09-28T13:57:24.218Z,11.92
2022-09-28T14:00:08.633Z,11.87
2022-09-28T14:02:49.417Z,11.92
2022-09-28T14:10:21.290Z,11.85
2022-09-28T14:13:09.979Z,11.90
2022-09-28T14:15:54.177Z,11.87
2022-09-28T14:18:32.416Z,11.85
2022-09-28T14:21:36.051Z,11.86
2022-09-28T14:24:22.712Z,11.86
2022-09-28T14:31:26.182Z,11.79
2022-09-28T14:34:32.398Z,11.71
2022-09-28T14:37:58.962Z,11.59
2022-09-28T14:41:26.864Z,11.61
2022-09-28T14:44:09.296Z,11.59
2022-09-28T14:47:45.308Z,11.58
2022-09-28T14:50:27.101Z,11.60
2022-09-28T14:53:21.192Z,11.54
2022-09-28T14:55:55.484Z,11.50
2022-09-28T14:59:23.088Z,11.59
2022-09-28T15:02:15.088Z,11.49
2022-09-28T15:05:12.067Z,11.48
2022-09-28T15:07:59.908Z,11.53
2022-09-28T15:10:34.444Z,11.49
2022-09-28T15:13:16.902Z,11.51
2022-09-28T15:15:51.001Z,11.53
2022-09-28T15:19:15.998Z,11.54
2022-09-28T15:21:47.742Z,11.43
2022-09-28T15:24:53.402Z,11.40
2022-09-28T15:27:22.497Z,11.42
2022-09-28T15:30:29.582Z,11.37
2022-09-28T15:33:37.173Z,11.33
2022-09-28T15:39:52.282Z,11.40
2022-09-28T15:42:22.915Z,11.29
2022-09-28T15:45:27.756Z,11.27
2022-09-28T15:48:21.530Z,11.16
2022-09-28T15:51:10.342Z,11.05
2022-09-28T15:53:44.966Z,10.99
2022-09-28T15:56:14.060Z,10.67
2022-09-28T15:58:43.796Z,10.48
2022-09-28T16:01:37.139Z,10.38
2022-09-28T16:04:49.130Z,10.31
2022-09-28T16:07:25.737Z,10.26
2022-09-28T16:10:06.506Z,10.21
2022-09-28T16:12:46.140Z,10.18
2022-09-28T16:15:21.593Z,10.08
2022-09-28T16:17:56.831Z,10.10
2022-09-28T16:20:32.274Z,10.05
2022-09-28T16:23:09.499Z,10.14
2022-09-28T16:25:40.240Z,9.93
2022-09-28T16:28:26.567Z,10.12
2022-09-28T16:31:08.560Z,10.01
2022-09-28T16:33:45.290Z,10.00
2022-09-28T16:36:18.943Z,9.89
2022-09-28T16:38:48.362Z,10.03
2022-09-28T16:41:23.306Z,10.00
2022-09-28T16:44:03.850Z,9.99
2022-09-28T16:46:37.622Z,9.97
2022-09-28T16:49:08.500Z,9.87
2022-09-28T16:51:40.244Z,9.80
2022-09-28T16:54:35.564Z,9.90
2022-09-28T16:57:06.914Z,9.69
2022-09-28T16:59:38.473Z,9.51
2022-09-28T17:02:45.725Z,9.57
2022-09-28T17:05:17.053Z,9.59
2022-09-28T17:07:49.227Z,9.60
2022-09-28T17:10:25.563Z,9.58
2022-09-28T17:12:54.783Z,9.57
2022-09-28T17:15:26.117Z,9.54
2022-09-28T17:17:58.329Z,9.62
2022-09-28T17:20:30.518Z,9.54
2022-09-28T17:23:02.367Z,9.55
2022-09-28T17:25:32.644Z,9.47
2022-09-28T17:28:05.108Z,9.43
2022-09-28T17:30:34.498Z,9.36
2022-09-28T17:33:04.162Z,9.36
2022-09-28T17:35:39.754Z,9.32
2022-09-28T17:38:13.886Z,9.43
2022-09-28T17:40:45.072Z,9.43
2022-09-28T17:43:16.127Z,9.40
2022-09-28T17:45:48.957Z,9.43
2022-09-28T17:48:21.956Z,9.36
2022-09-28T17:50:56.201Z,9.28
2022-09-28T17:53:27.297Z,9.32
2022-09-28T17:55:57.070Z,9.34
2022-09-28T17:58:26.589Z,9.28
2022-09-28T18:00:56.121Z,9.23
2022-09-28T18:03:42.490Z,9.22
2022-09-28T18:06:22.701Z,9.15
2022-09-28T18:09:06.096Z,9.03
2022-09-28T18:11:48.060Z,8.99
2022-09-28T18:14:17.684Z,8.96
2022-09-28T18:16:59.545Z,9.08
2022-09-28T18:19:33.939Z,9.07
2022-09-28T18:22:03.677Z,9.02
2022-09-28T18:24:37.372Z,9.00
2022-09-28T18:27:06.980Z,9.04
2022-09-28T18:29:39.829Z,8.99
2022-09-28T18:32:18.019Z,9.01
2022-09-28T18:34:52.506Z,8.84
2022-09-28T18:37:31.084Z,8.89
2022-09-28T18:40:02.242Z,8.89
2022-09-28T18:42:38.878Z,8.89
2022-09-28T18:45:20.206Z,8.87
2022-09-28T18:47:49.707Z,8.80
2022-09-28T18:50:20.149Z,8.82
2022-09-28T18:52:53.397Z,8.81
2022-09-28T18:55:31.910Z,8.73
2022-09-28T18:58:13.708Z,8.84
2022-09-28T19:00:44.836Z,8.77
2022-09-28T19:03:52.295Z,8.73
2022-09-28T19:06:23.368Z,8.65
2022-09-28T19:08:55.944Z,8.65
2022-09-28T19:11:27.491Z,8.62
2022-09-28T19:14:01.507Z,8.58
2022-09-28T19:16:35.197Z,8.56
2022-09-28T19:19:09.624Z,8.55
2022-09-28T19:21:40.108Z,8.51
2022-09-28T19:24:10.416Z,8.57
2022-09-28T19:26:43.172Z,8.52
2022-09-28T19:29:22.792Z,8.47
2022-09-28T19:31:54.483Z,8.45
2022-09-28T19:34:27.085Z,8.40
2022-09-28T19:36:56.467Z,8.51
2022-09-28T19:39:25.839Z,8.51
2022-09-28T19:41:59.889Z,8.45
2022-09-28T19:44:35.989Z,8.49
2022-09-28T19:47:11.763Z,8.44
2022-09-28T19:49:42.372Z,8.47
2022-09-28T19:52:17.341Z,8.42
2022-09-28T19:54:57.024Z,8.40
2022-09-28T19:57:42.978Z,8.40
2022-09-28T20:00:20.793Z,8.38
2022-09-28T20:02:53.304Z,8.39
2022-09-28T20:05:23.863Z,8.36
2022-09-28T20:07:53.154Z,8.33
2022-09-28T20:10:22.501Z,8.33
2022-09-28T20:12:55.769Z,8.42
2022-09-28T20:15:27.870Z,8.40
2022-09-28T20:18:00.008Z,8.39
2022-09-28T20:20:29.404Z,8.36
2022-09-28T20:22:58.899Z,8.44
2022-09-28T20:25:28.331Z,8.38
2022-09-28T20:27:59.073Z,8.40
2022-09-28T20:30:28.317Z,8.39
2022-09-28T20:32:57.795Z,8.49
2022-09-28T20:35:32.933Z,8.42
2022-09-28T20:38:08.183Z,8.36
2022-09-28T20:40:42.341Z,8.35
2022-09-28T20:43:13.375Z,8.29
2022-09-28T20:45:43.127Z,8.22
2022-09-28T20:48:12.170Z,8.27
2022-09-28T20:50:42.823Z,8.25
2022-09-28T20:53:12.007Z,8.36
2022-09-28T20:55:40.916Z,8.30
2022-09-28T20:58:09.741Z,8.34
2022-09-28T21:00:40.172Z,8.33
2022-09-28T21:03:10.263Z,8.31
2022-09-28T21:05:39.104Z,8.38
2022-09-28T21:08:07.756Z,8.35
2022-09-28T21:10:36.634Z,8.47
2022-09-28T21:13:05.619Z,8.45
2022-09-28T21:15:35.257Z,8.52
2022-09-28T21:18:05.669Z,8.46
2022-09-28T21:20:34.403Z,8.47
2022-09-28T21:23:03.126Z,8.41
2022-09-28T21:25:31.848Z,8.38
2022-09-28T21:28:00.614Z,8.47
2022-09-28T21:30:29.395Z,8.46
2022-09-28T21:32:58.433Z,8.47
2022-09-28T21:35:28.677Z,8.45
2022-09-28T21:37:57.429Z,8.41
2022-09-28T21:40:26.166Z,8.40
2022-09-28T21:42:55.016Z,8.33
2022-09-28T21:45:25.287Z,8.43
2022-09-28T21:47:54.507Z,8.36
2022-09-28T21:50:25.461Z,8.39
2022-09-28T21:52:57.115Z,8.47
2022-09-28T21:55:26.367Z,8.41
2022-09-28T21:57:55.136Z,8.45
2022-09-28T22:00:24.489Z,8.41
2022-09-28T22:02:53.493Z,8.33
2022-09-28T22:05:22.232Z,8.37
2022-09-28T22:07:51.015Z,8.28
2022-09-28T22:10:21.272Z,8.31
2022-09-28T22:12:50.897Z,8.30
2022-09-28T22:15:19.596Z,8.21
2022-09-28T22:17:48.377Z,8.24
2022-09-28T22:20:17.385Z,8.18
2022-09-28T22:22:50.953Z,8.21
2022-09-28T22:25:21.231Z,8.25
2022-09-28T22:27:49.989Z,8.29
2022-09-28T22:30:18.899Z,8.35
2022-09-28T22:32:47.786Z,8.36
2022-09-28T22:35:16.687Z,8.33
2022-09-28T22:37:45.445Z,8.24
2022-09-28T22:40:14.682Z,8.29
2022-09-28T22:42:44.726Z,8.17
2022-09-28T22:45:13.397Z,8.16
2022-09-28T22:47:42.785Z,8.25
2022-09-28T22:50:11.775Z,8.22
2022-09-28T22:52:40.476Z,8.16
2022-09-28T22:55:10.199Z,8.23
2022-09-28T22:57:39.491Z,8.31
2022-09-28T23:00:11.412Z,8.08
2022-09-28T23:02:40.244Z,8.09
2022-09-28T23:05:09.202Z,8.12
2022-09-28T23:07:38.173Z,8.12
2022-09-28T23:10:08.134Z,8.13
2022-09-28T23:12:38.170Z,8.15
2022-09-28T23:15:10.531Z,8.08
2022-09-28T23:17:39.369Z,8.04
2022-09-28T23:20:09.068Z,8.10
2022-09-28T23:22:38.081Z,8.08
2022-09-28T23:25:08.162Z,8.14
2022-09-28T23:27:36.941Z,8.07
2022-09-28T23:30:06.509Z,8.15
2022-09-28T23:32:37.001Z,8.17
2022-09-28T23:35:07.020Z,8.15
2022-09-28T23:37:58.219Z,8.03
2022-09-28T23:40:33.062Z,8.14
2022-09-28T23:43:01.866Z,8.04
2022-09-28T23:45:30.574Z,7.96
2022-09-28T23:48:00.769Z,8.10
2022-09-28T23:50:29.475Z,8.09
2022-09-28T23:52:58.224Z,8.12
2022-09-28T23:55:26.843Z,8.05
2022-09-28T23:57:56.813Z,8.07
